createdAt,value
2023-01-23T02:10:30.251Z,22.75
2023-01-23T02:13:25.308Z,13.32
2023-01-23T02:16:03.873Z,12.80
2023-01-23T02:18:48.597Z,16.48
2023-01-23T02:21:20.500Z,15.18
2023-01-23T02:24:21.628Z,11.27
2023-01-23T02:27:16.429Z,17.88
2023-01-23T02:29:45.976Z,11.73
2023-01-23T02:32:24.388Z,14.70
2023-01-23T02:34:55.661Z,11.43
2023-01-23T02:37:51.660Z,12.30
2023-01-23T02:40:23.309Z,16.80
2023-01-23T02:42:53.680Z,14.32
2023-01-23T02:45:27.690Z,9.63
2023-01-23T02:47:59.597Z,12.43
2023-01-23T02:50:28.837Z,13.70
2023-01-23T02:52:59.994Z,14.48
2023-01-23T02:55:34.045Z,10.88
2023-01-23T02:58:27.194Z,12.65
2023-01-23T03:01:02.195Z,14.95
2023-01-23T03:03:42.535Z,9.90
2023-01-23T03:06:12.587Z,8.80
2023-01-23T03:08:47.685Z,8.07
2023-01-23T03:11:16.896Z,15.43
2023-01-23T03:13:47.169Z,8.65
2023-01-23T03:16:21.584Z,9.15
2023-01-23T03:18:54.846Z,12.27
2023-01-23T03:21:25.353Z,14.50
2023-01-23T03:23:53.078Z,9.48
2023-01-23T03:26:21.037Z,14.80
2023-01-23T03:29:22.467Z,12.07
2023-01-23T03:31:52.904Z,13.90
2023-01-23T03:34:25.150Z,11.07
2023-01-23T03:36:59.079Z,8.63
2023-01-23T03:39:47.947Z,13.05
2023-01-23T03:42:26.687Z,10.48
2023-01-23T03:45:05.498Z,10.52
2023-01-23T03:47:42.965Z,10.73
2023-01-23T03:50:15.888Z,12.95
2023-01-23T03:52:47.623Z,9.52
2023-01-23T03:55:16.419Z,9.27
2023-01-23T03:57:48.468Z,11.30
2023-01-23T04:00:27.588Z,12.25
2023-01-23T04:03:21.277Z,13.18
2023-01-23T04:08:26.268Z,12.10
2023-01-23T04:11:22.163Z,15.40
2023-01-23T04:13:50.244Z,8.93
2023-01-23T04:16:25.390Z,8.27
2023-01-23T04:18:59.188Z,11.18
2023-01-23T04:21:29.927Z,13.55
2023-01-23T04:23:57.779Z,15.32
2023-01-23T04:26:48.388Z,13.15
2023-01-23T04:29:19.382Z,12.40
2023-01-23T04:31:50.964Z,12.85
2023-01-23T04:34:20.896Z,11.20
2023-01-23T04:36:54.530Z,12.80
2023-01-23T04:39:24.549Z,10.07
2023-01-23T04:41:52.364Z,6.38
2023-01-23T04:44:44.989Z,9.80
2023-01-23T04:47:31.499Z,9.50
2023-01-23T04:50:02.815Z,7.70
2023-01-23T04:52:38.776Z,15.38
2023-01-23T04:55:13.685Z,15.02
2023-01-23T04:57:44.485Z,7.47
2023-01-23T05:00:25.409Z,12.10
2023-01-23T05:02:57.898Z,7.03
2023-01-23T05:05:30.572Z,12.30
2023-01-23T05:08:04.419Z,12.23
2023-01-23T05:10:40.314Z,11.90
2023-01-23T05:13:14.268Z,11.13
2023-01-23T05:15:49.743Z,10.77
2023-01-23T05:18:18.154Z,12.93
2023-01-23T05:20:49.973Z,12.48
2023-01-23T05:23:21.659Z,13.40
2023-01-23T05:25:52.902Z,11.68
2023-01-23T05:28:28.352Z,8.48
2023-01-23T05:31:00.204Z,10.15
2023-01-23T05:33:49.066Z,8.65
2023-01-23T05:36:18.565Z,10.90
2023-01-23T05:38:48.536Z,12.38
2023-01-23T05:41:24.134Z,8.25
2023-01-23T05:44:30.598Z,11.05
2023-01-23T05:47:14.405Z,5.72
2023-01-23T05:49:44.791Z,11.57
2023-01-23T05:52:16.637Z,8.13
2023-01-23T05:54:45.123Z,6.82
2023-01-23T05:57:18.495Z,10.27
2023-01-23T06:00:32.824Z,9.23
2023-01-23T06:03:21.114Z,7.80
2023-01-23T06:06:00.523Z,11.68
2023-01-23T06:08:32.895Z,13.32
2023-01-23T06:11:21.111Z,10.13
2023-01-23T06:14:45.080Z,9.07
2023-01-23T06:17:01.294Z,9.18
2023-01-23T06:19:34.339Z,11.97
2023-01-23T06:22:06.701Z,12.38
2023-01-23T06:24:46.151Z,13.40
2023-01-23T06:27:36.032Z,12.60
2023-01-23T06:30:13.765Z,11.50
2023-01-23T06:32:50.949Z,12.38
2023-01-23T06:35:47.516Z,13.93
2023-01-23T06:38:26.882Z,18.75
2023-01-23T06:41:15.529Z,10.70
2023-01-23T06:43:56.416Z,16.20
2023-01-23T06:49:05.204Z,16.30
2023-01-23T06:51:39.647Z,14.80
2023-01-23T06:54:13.456Z,14.15
2023-01-23T06:57:02.870Z,12.32
2023-01-23T06:59:35.986Z,15.23
2023-01-23T07:02:20.126Z,16.45
2023-01-23T07:05:03.885Z,16.15
2023-01-23T07:07:36.203Z,14.50
2023-01-23T07:10:06.575Z,18.13
2023-01-23T07:12:36.643Z,16.85
2023-01-23T07:15:11.335Z,16.08
2023-01-23T07:17:45.944Z,16.65
2023-01-23T07:20:16.974Z,13.10
2023-01-23T07:23:11.334Z,19.83
2023-01-23T07:25:41.343Z,15.50
2023-01-23T07:28:14.873Z,14.73
2023-01-23T07:30:42.676Z,16.70
2023-01-23T07:33:13.641Z,14.45
2023-01-23T07:35:45.324Z,15.48
2023-01-23T07:38:26.992Z,20.50
2023-01-23T07:41:03.263Z,15.05
2023-01-23T07:43:33.531Z,16.30
2023-01-23T07:46:26.438Z,16.80
2023-01-23T07:48:57.033Z,13.60
2023-01-23T07:51:26.771Z,17.42
2023-01-23T07:53:56.771Z,18.25
2023-01-23T07:56:28.460Z,18.20
2023-01-23T07:59:58.801Z,13.70
2023-01-23T08:01:51.006Z,17.38
2023-01-23T08:04:22.962Z,20.85
2023-01-23T08:06:55.497Z,17.60
2023-01-23T08:09:28.433Z,18.02
2023-01-23T08:15:59.849Z,16.40
2023-01-23T08:17:16.037Z,18.70
2023-01-23T08:19:55.235Z,16.65
2023-01-23T08:22:23.002Z,16.83
2023-01-23T08:24:52.497Z,16.20
2023-01-23T08:27:22.609Z,17.88
2023-01-23T08:30:20.820Z,23.45
2023-01-23T08:32:43.331Z,17.60
2023-01-23T08:35:22.390Z,18.33
2023-01-23T08:37:52.285Z,18.05
2023-01-23T08:41:25.506Z,17.17
2023-01-23T08:43:23.331Z,17.63
2023-01-23T08:45:56.010Z,19.15
2023-01-23T08:48:27.013Z,18.58
2023-01-23T08:51:05.093Z,15.77
2023-01-23T08:53:54.700Z,13.30
2023-01-23T08:56:23.343Z,14.68
2023-01-23T08:58:53.758Z,18.05
2023-01-23T09:01:26.343Z,16.13
2023-01-23T09:05:16.582Z,16.25
2023-01-23T09:07:06.791Z,15.73
2023-01-23T09:09:44.772Z,20.52
2023-01-23T09:12:18.157Z,13.55
2023-01-23T09:14:45.911Z,15.35
2023-01-23T09:17:27.701Z,17.23
2023-01-23T09:20:01.955Z,19.88
2023-01-23T09:22:31.766Z,17.70
2023-01-23T09:25:00.867Z,16.00
2023-01-23T09:27:28.626Z,16.23
2023-01-23T09:29:59.260Z,14.38
2023-01-23T09:32:28.393Z,16.10
2023-01-23T09:35:03.236Z,13.80
2023-01-23T09:38:00.127Z,15.07
2023-01-23T09:40:32.644Z,17.25
2023-01-23T09:43:04.865Z,15.40
2023-01-23T09:45:37.716Z,13.55
2023-01-23T09:48:43.642Z,15.15
2023-01-23T09:51:16.772Z,16.55
2023-01-23T09:53:49.499Z,10.45
2023-01-23T09:56:29.588Z,12.55
2023-01-23T09:59:00.355Z,12.93
2023-01-23T10:01:33.124Z,10.23
2023-01-23T10:04:04.239Z,10.80
2023-01-23T10:06:49.778Z,9.88
2023-01-23T10:09:17.479Z,9.90
2023-01-23T10:11:50.585Z,10.35
2023-01-23T10:14:26.154Z,8.00
2023-01-23T10:19:42.796Z,10.65
2023-01-23T10:22:23.351Z,12.52
2023-01-23T10:25:40.579Z,7.72
2023-01-23T10:28:19.856Z,10.07
2023-01-23T10:30:54.018Z,8.68
2023-01-23T10:33:25.025Z,9.02
2023-01-23T10:36:26.204Z,9.68
2023-01-23T10:38:58.194Z,9.18
2023-01-23T10:41:32.115Z,8.32
2023-01-23T10:44:03.304Z,10.35
2023-01-23T10:46:33.268Z,6.82
2023-01-23T10:49:03.964Z,8.25
2023-01-23T10:51:33.830Z,11.18
2023-01-23T10:54:10.268Z,11.05
2023-01-23T10:56:56.565Z,5.93
2023-01-23T10:59:34.903Z,9.50
2023-01-23T11:02:37.444Z,15.73
2023-01-23T11:05:25.394Z,9.40
2023-01-23T11:07:58.571Z,9.52
2023-01-23T11:10:32.719Z,14.93
2023-01-23T11:13:03.448Z,12.20
2023-01-23T11:15:38.038Z,13.45
2023-01-23T11:18:21.713Z,9.27
2023-01-23T11:20:58.028Z,8.10
2023-01-23T11:23:26.077Z,7.82
2023-01-23T11:26:08.023Z,6.35
2023-01-23T11:29:00.032Z,6.60
2023-01-23T11:31:33.259Z,2.65
2023-01-23T11:34:18.248Z,3.20
2023-01-23T11:37:00.737Z,4.10
2023-01-23T11:39:51.124Z,4.93
2023-01-23T11:42:23.950Z,4.03
2023-01-23T11:44:57.108Z,3.33
2023-01-23T11:47:33.568Z,2.85
2023-01-23T11:50:11.999Z,4.15
2023-01-23T11:52:51.749Z,3.85
2023-01-23T11:55:39.815Z,7.25
2023-01-23T11:58:37.187Z,8.48
2023-01-23T12:01:32.785Z,26.67
2023-01-23T12:04:20.739Z,5.93
2023-01-23T12:07:08.567Z,4.05
2023-01-23T12:09:45.267Z,6.18
2023-01-23T12:12:42.195Z,3.90
2023-01-23T12:15:20.825Z,7.68
2023-01-23T12:18:13.797Z,3.88
2023-01-23T12:20:54.644Z,3.55
2023-01-23T12:23:56.020Z,4.28
2023-01-23T12:26:27.634Z,6.53
2023-01-23T12:29:24.000Z,4.88
2023-01-23T12:32:22.017Z,3.33
2023-01-23T12:34:46.334Z,5.30
2023-01-23T12:37:36.626Z,3.65
2023-01-23T12:40:20.808Z,5.10
2023-01-23T12:42:52.178Z,3.60
2023-01-23T12:45:26.305Z,4.75
2023-01-23T12:48:02.678Z,5.10
2023-01-23T12:50:49.477Z,4.63
2023-01-23T12:53:30.705Z,4.00
2023-01-23T12:56:15.081Z,5.03
2023-01-23T12:58:48.948Z,4.73
2023-01-23T13:01:36.765Z,6.53
2023-01-23T13:04:21.615Z,6.68
2023-01-23T13:07:38.026Z,6.40
2023-01-23T13:13:32.611Z,5.20
2023-01-23T13:16:35.875Z,7.30
2023-01-23T13:19:37.509Z,4.80
2023-01-23T13:22:56.514Z,6.45
2023-01-23T13:25:18.946Z,5.45
2023-01-23T13:27:50.326Z,5.03
2023-01-23T13:30:39.049Z,6.13
2023-01-23T13:33:08.989Z,8.30
2023-01-23T13:36:19.872Z,6.50
2023-01-23T13:39:28.401Z,6.50
2023-01-23T13:42:28.192Z,7.18
2023-01-23T13:45:49.222Z,5.85
2023-01-23T14:21:42.717Z,5.97
2023-01-23T14:24:31.162Z,6.63
2023-01-23T14:27:30.167Z,6.47
2023-01-23T14:30:17.840Z,6.43
2023-01-23T14:32:56.522Z,9.40
2023-01-23T14:35:40.975Z,7.63
2023-01-23T14:38:11.417Z,8.82
2023-01-23T14:41:22.806Z,7.63
2023-01-23T14:44:15.258Z,8.40
2023-01-23T14:47:17.165Z,6.75
2023-01-23T14:49:57.416Z,7.95
2023-01-23T14:52:31.561Z,9.00
2023-01-23T14:55:08.142Z,6.35
2023-01-23T14:57:41.946Z,7.32
2023-01-23T15:00:17.625Z,8.57
2023-01-23T15:02:57.008Z,9.93
2023-01-23T15:05:27.633Z,9.45
2023-01-23T15:08:33.231Z,11.25
2023-01-23T15:11:18.677Z,9.20
2023-01-23T15:13:52.518Z,8.43
2023-01-23T15:16:24.322Z,10.57
2023-01-23T15:20:34.736Z,10.50
2023-01-23T15:24:34.915Z,11.52
2023-01-23T15:27:25.645Z,10.15
2023-01-23T15:29:58.516Z,8.30
2023-01-23T15:32:38.387Z,9.73
2023-01-23T15:35:38.161Z,9.25
2023-01-23T15:38:21.595Z,8.65
2023-01-23T15:43:40.362Z,8.90
2023-01-23T15:46:23.530Z,8.15
2023-01-23T15:48:55.663Z,8.45
2023-01-23T15:51:31.825Z,7.70
2023-01-23T15:54:05.318Z,9.15
2023-01-23T15:57:05.515Z,9.73
2023-01-23T15:59:37.319Z,7.88
2023-01-23T16:10:56.874Z,9.27
2023-01-23T16:13:33.208Z,10.15
2023-01-23T16:16:23.263Z,9.02
2023-01-23T16:18:51.053Z,9.13
2023-01-23T16:21:38.972Z,11.02
2023-01-23T16:24:10.897Z,8.50
2023-01-23T16:27:01.635Z,11.63
2023-01-23T16:29:46.636Z,10.02
2023-01-23T16:32:26.019Z,12.77
2023-01-23T16:34:56.430Z,9.15
2023-01-23T16:37:26.202Z,11.52
2023-01-23T16:40:33.770Z,12.52
2023-01-23T16:43:04.709Z,10.50
2023-01-23T16:45:35.786Z,12.48
2023-01-23T16:48:10.971Z,9.68
2023-01-23T16:51:04.105Z,13.80
2023-01-23T16:53:41.944Z,18.15
2023-01-23T16:56:22.409Z,14.40
2023-01-23T16:59:01.728Z,12.65
2023-01-23T17:04:21.894Z,15.18
2023-01-23T17:07:13.374Z,13.18
2023-01-23T17:09:44.565Z,17.08
2023-01-23T17:12:22.247Z,22.05
2023-01-23T17:15:01.445Z,14.98
2023-01-23T17:17:40.156Z,15.02
2023-01-23T17:20:34.583Z,17.05
2023-01-23T17:23:14.172Z,24.42
2023-01-23T17:25:59.712Z,23.30
2023-01-23T17:28:31.213Z,22.08
2023-01-23T17:31:04.369Z,17.20
2023-01-23T17:33:35.456Z,13.82
2023-01-23T17:36:13.323Z,12.57
2023-01-23T17:38:46.398Z,16.67
2023-01-23T17:41:25.091Z,12.70
2023-01-23T17:44:13.942Z,12.48
2023-01-23T17:46:47.481Z,8.57
2023-01-23T17:50:05.786Z,11.98
2023-01-23T17:56:32.870Z,10.88
2023-01-23T18:01:51.520Z,15.88
2023-01-23T18:04:51.728Z,13.85
2023-01-23T18:07:52.392Z,13.20
2023-01-23T18:10:44.705Z,12.27
2023-01-23T18:16:48.584Z,13.13
2023-01-23T18:19:37.820Z,13.35
2023-01-23T18:22:13.404Z,12.43
2023-01-23T18:24:46.252Z,11.93
2023-01-23T18:30:03.067Z,13.75
2023-01-23T18:32:47.307Z,12.70
2023-01-23T18:35:48.570Z,11.90
2023-01-23T18:38:23.849Z,12.18
2023-01-23T18:41:12.641Z,11.75
2023-01-23T18:43:48.609Z,12.40
2023-01-23T18:46:29.500Z,13.77
2023-01-23T18:49:31.991Z,12.63
2023-01-23T18:52:21.723Z,13.25
2023-01-23T18:55:11.392Z,13.27
2023-01-23T18:58:04.749Z,11.70
2023-01-23T19:00:40.021Z,13.88
2023-01-23T19:03:27.328Z,12.15
2023-01-23T19:06:02.877Z,15.10
2023-01-23T19:08:39.622Z,13.52
2023-01-23T19:17:22.105Z,16.33
2023-01-23T19:20:05.991Z,13.95
2023-01-23T19:22:59.980Z,13.82
2023-01-23T19:25:34.324Z,15.18
2023-01-23T19:31:43.765Z,13.57
2023-01-23T19:37:10.804Z,14.75
2023-01-23T19:39:45.370Z,19.63
2023-01-23T19:42:17.708Z,16.65
2023-01-23T19:45:13.008Z,19.00
2023-01-23T19:48:04.028Z,16.95
2023-01-23T19:50:56.117Z,17.33
2023-01-23T19:53:31.179Z,17.88
2023-01-23T19:56:01.577Z,15.15
2023-01-23T19:58:41.816Z,16.88
2023-01-23T20:01:53.684Z,14.32
2023-01-23T20:07:26.361Z,17.45
2023-01-23T20:09:55.520Z,15.88
2023-01-23T20:12:30.494Z,15.88
2023-01-23T20:15:29.753Z,14.73
2023-01-23T20:17:58.954Z,17.98
2023-01-23T20:20:34.874Z,14.80
2023-01-23T20:23:06.969Z,15.05
2023-01-23T20:26:02.690Z,14.77
2023-01-23T20:28:36.338Z,16.70
2023-01-23T20:31:26.511Z,24.80
2023-01-23T20:34:05.771Z,15.93
2023-01-23T20:36:41.725Z,15.15
2023-01-23T20:41:46.173Z,19.17
2023-01-23T20:45:52.439Z,15.07
2023-01-23T20:47:08.364Z,15.35
2023-01-23T20:49:48.287Z,16.73
2023-01-23T20:52:54.923Z,13.13
2023-01-23T20:55:22.952Z,17.50
2023-01-23T20:58:42.930Z,14.50
2023-01-23T21:03:48.058Z,14.85
2023-01-23T21:06:31.934Z,13.98
2023-01-23T21:09:07.724Z,18.40
2023-01-23T21:11:40.857Z,14.07
2023-01-23T21:14:48.841Z,14.73
2023-01-23T21:17:21.081Z,12.07
2023-01-23T21:19:59.480Z,15.48
2023-01-23T21:22:32.178Z,16.00
2023-01-23T21:25:15.846Z,17.00
2023-01-23T21:28:06.195Z,16.13
2023-01-23T21:30:37.560Z,16.52
2023-01-23T21:33:12.199Z,19.30
2023-01-23T21:36:01.079Z,18.25
2023-01-23T21:38:40.156Z,16.40
2023-01-23T21:41:32.950Z,16.63
2023-01-23T21:44:18.927Z,16.40
2023-01-23T21:49:43.484Z,17.80
2023-01-23T21:52:29.410Z,16.70
2023-01-23T21:55:04.344Z,14.63
2023-01-23T21:57:43.707Z,14.95
2023-01-23T22:00:32.930Z,15.32
2023-01-23T22:03:11.058Z,15.75
2023-01-23T22:05:43.097Z,14.75
2023-01-23T22:08:10.882Z,13.80
2023-01-23T22:10:57.957Z,15.23
2023-01-23T22:13:45.911Z,15.38
2023-01-23T22:16:31.879Z,14.38
2023-01-23T22:19:13.323Z,14.68
2023-01-23T22:21:43.834Z,16.65
2023-01-23T22:24:17.753Z,16.67
2023-01-23T22:26:45.546Z,14.98
2023-01-23T22:29:20.134Z,14.70
2023-01-23T22:31:53.942Z,14.15
2023-01-23T22:34:21.695Z,15.77
2023-01-23T22:37:00.830Z,14.02
2023-01-23T22:39:38.315Z,15.63
2023-01-23T22:45:04.787Z,17.90
2023-01-23T22:47:33.015Z,14.00
2023-01-23T22:50:05.113Z,13.25
2023-01-23T22:52:39.311Z,17.08
2023-01-23T22:55:15.781Z,14.15
2023-01-23T22:58:05.918Z,17.88
2023-01-23T23:00:33.740Z,14.23
2023-01-23T23:03:09.753Z,15.15
2023-01-23T23:05:52.651Z,16.13
2023-01-23T23:08:25.035Z,13.48
2023-01-23T23:11:06.528Z,15.10
2023-01-23T23:13:37.830Z,14.00
2023-01-23T23:16:16.039Z,13.23
2023-01-23T23:18:54.155Z,15.05
2023-01-23T23:21:39.140Z,14.77
2023-01-23T23:24:10.192Z,14.90
2023-01-23T23:26:37.852Z,15.50
2023-01-23T23:29:14.963Z,14.88
2023-01-23T23:32:06.049Z,13.30
2023-01-23T23:35:39.048Z,13.80
2023-01-23T23:38:27.297Z,14.65
2023-01-23T23:40:58.228Z,16.88
2023-01-23T23:43:43.982Z,15.52
2023-01-23T23:46:21.119Z,17.25
2023-01-23T23:48:49.009Z,15.48
2023-01-23T23:51:44.814Z,16.27
2023-01-23T23:54:15.617Z,17.17
2023-01-23T23:57:01.140Z,16.60
2023-01-23T23:59:34.235Z,18.20
